createdAt,value
2023-03-19T00:01:08.589Z,10.07
2023-03-19T00:03:38.489Z,10.45
2023-03-19T00:06:07.209Z,10.35
2023-03-19T00:08:35.497Z,9.85
2023-03-19T00:11:08.204Z,9.63
2023-03-19T00:13:36.445Z,10.73
2023-03-19T00:16:04.988Z,10.35
2023-03-19T00:18:33.673Z,10.45
2023-03-19T00:21:03.372Z,10.68
2023-03-19T00:23:31.906Z,9.57
2023-03-19T00:26:00.188Z,9.27
2023-03-19T00:28:28.573Z,9.73
2023-03-19T00:30:56.952Z,9.27
2023-03-19T00:33:25.803Z,9.23
2023-03-19T00:35:54.399Z,8.75
2023-03-19T00:38:25.074Z,10.43
2023-03-19T00:40:53.319Z,10.48
2023-03-19T00:43:21.532Z,9.75
2023-03-19T00:45:49.800Z,9.30
2023-03-19T00:48:18.486Z,9.70
2023-03-19T00:50:49.566Z,10.00
2023-03-19T00:53:18.088Z,10.63
2023-03-19T00:55:47.787Z,10.23
2023-03-19T00:58:16.067Z,9.93
2023-03-19T01:00:44.380Z,9.65
2023-03-19T01:03:12.643Z,9.65
2023-03-19T01:05:41.333Z,9.52
2023-03-19T01:08:10.030Z,8.75
2023-03-19T01:10:38.246Z,9.15
2023-03-19T01:13:08.125Z,8.80
2023-03-19T01:15:37.969Z,9.18
2023-03-19T01:18:06.718Z,9.70
2023-03-19T01:20:35.642Z,8.80
2023-03-19T01:23:04.502Z,8.52
2023-03-19T01:25:32.920Z,7.80
2023-03-19T01:28:01.372Z,7.70
2023-03-19T01:30:31.449Z,9.07
2023-03-19T01:32:59.893Z,7.65
2023-03-19T01:35:28.938Z,8.13
2023-03-19T01:37:57.184Z,8.30
2023-03-19T01:40:25.637Z,7.97
2023-03-19T01:42:56.188Z,7.40
2023-03-19T01:45:37.377Z,7.50
2023-03-19T01:48:06.874Z,7.47
2023-03-19T01:50:41.958Z,8.05
2023-03-19T01:53:12.664Z,7.25
2023-03-19T01:55:42.391Z,7.93
2023-03-19T01:58:11.833Z,7.80
2023-03-19T02:00:42.682Z,8.75
2023-03-19T02:03:11.799Z,7.95
2023-03-19T02:05:42.521Z,8.20
2023-03-19T02:08:13.634Z,8.32
2023-03-19T02:10:43.576Z,7.53
2023-03-19T02:13:12.370Z,7.47
2023-03-19T02:15:42.452Z,7.93
2023-03-19T02:18:11.548Z,7.07
2023-03-19T02:20:48.052Z,7.47
2023-03-19T02:23:24.977Z,6.75
2023-03-19T02:26:06.333Z,7.95
2023-03-19T02:28:35.636Z,7.55
2023-03-19T02:31:03.966Z,7.53
2023-03-19T02:33:32.228Z,7.75
2023-03-19T02:36:01.153Z,7.82
2023-03-19T02:38:31.748Z,7.97
2023-03-19T02:41:05.163Z,7.55
2023-03-19T02:43:34.360Z,7.78
2023-03-19T02:46:03.079Z,8.20
2023-03-19T02:48:31.734Z,7.53
2023-03-19T02:51:00.025Z,7.05
2023-03-19T02:53:28.361Z,8.30
2023-03-19T02:55:56.633Z,6.80
2023-03-19T02:58:26.300Z,8.20
2023-03-19T03:00:54.649Z,7.40
2023-03-19T03:03:22.933Z,7.00
2023-03-19T03:05:51.179Z,7.68
2023-03-19T03:08:20.719Z,6.63
2023-03-19T03:10:48.980Z,7.13
2023-03-19T03:13:17.321Z,7.60
2023-03-19T03:15:46.990Z,7.20
2023-03-19T03:18:15.211Z,7.38
2023-03-19T03:20:43.960Z,8.23
2023-03-19T03:23:12.903Z,8.02
2023-03-19T03:25:41.378Z,7.70
2023-03-19T03:28:09.716Z,7.53
2023-03-19T03:30:38.250Z,7.10
2023-03-19T03:33:08.663Z,8.55
2023-03-19T03:35:37.167Z,11.30
2023-03-19T03:38:06.785Z,8.77
2023-03-19T03:40:36.639Z,9.70
2023-03-19T03:43:05.120Z,9.40
2023-03-19T03:45:33.431Z,9.68
2023-03-19T03:48:02.279Z,9.05
2023-03-19T03:50:32.077Z,8.40
2023-03-19T03:53:00.617Z,7.95
2023-03-19T03:55:29.373Z,7.85
2023-03-19T03:57:57.632Z,7.85
2023-03-19T04:00:26.718Z,9.23
2023-03-19T04:02:55.015Z,7.90
2023-03-19T04:05:23.296Z,8.00
2023-03-19T04:07:53.682Z,7.72
2023-03-19T04:10:21.926Z,8.30
2023-03-19T04:12:50.200Z,7.10
2023-03-19T04:15:19.074Z,6.63
2023-03-19T04:17:47.520Z,7.20
2023-03-19T04:20:16.494Z,7.43
2023-03-19T04:22:44.771Z,8.00
2023-03-19T04:25:14.657Z,7.43
2023-03-19T04:27:42.921Z,7.43
2023-03-19T04:30:12.525Z,7.50
2023-03-19T04:32:41.537Z,6.75
2023-03-19T04:35:10.358Z,7.22
2023-03-19T04:37:38.812Z,7.32
2023-03-19T04:40:08.327Z,8.38
2023-03-19T04:42:38.098Z,7.70
2023-03-19T04:45:07.655Z,8.45
2023-03-19T04:47:36.159Z,6.88
2023-03-19T04:50:04.671Z,7.47
2023-03-19T04:52:33.433Z,7.72
2023-03-19T04:55:01.712Z,7.75
2023-03-19T04:57:29.941Z,7.78
2023-03-19T04:59:59.906Z,8.25
2023-03-19T05:02:28.368Z,8.45
2023-03-19T05:04:56.603Z,7.00
2023-03-19T05:07:24.952Z,7.60
2023-03-19T05:09:53.646Z,8.55
2023-03-19T05:12:21.964Z,8.02
2023-03-19T05:14:50.223Z,8.52
2023-03-19T05:17:19.885Z,8.65
2023-03-19T05:19:48.693Z,8.48
2023-03-19T05:22:17.222Z,7.72
2023-03-19T05:24:45.524Z,8.75
2023-03-19T05:27:14.111Z,7.28
2023-03-19T05:29:42.545Z,7.75
2023-03-19T05:32:11.224Z,8.38
2023-03-19T05:34:40.963Z,8.27
2023-03-19T05:37:09.622Z,8.68
2023-03-19T05:39:37.894Z,7.40
2023-03-19T05:42:06.677Z,8.05
2023-03-19T05:44:34.920Z,7.57
2023-03-19T05:47:03.122Z,7.22
2023-03-19T05:49:31.423Z,8.45
2023-03-19T05:52:01.166Z,8.15
2023-03-19T05:54:29.437Z,8.35
2023-03-19T05:56:57.740Z,8.48
2023-03-19T05:59:26.024Z,7.93
2023-03-19T06:01:54.369Z,8.20
2023-03-19T06:04:22.773Z,8.45
2023-03-19T06:06:51.101Z,7.75
2023-03-19T06:09:21.124Z,7.72
2023-03-19T06:11:49.331Z,8.02
2023-03-19T06:14:17.919Z,10.20
2023-03-19T06:16:46.202Z,10.38
2023-03-19T06:19:14.458Z,35.72
2023-03-19T06:21:42.677Z,86.72
2023-03-19T06:24:11.357Z,90.13
2023-03-19T06:26:41.114Z,80.47
2023-03-19T06:29:09.345Z,37.92
2023-03-19T06:31:39.527Z,15.55
2023-03-19T06:34:07.861Z,15.38
2023-03-19T06:36:36.083Z,18.33
2023-03-19T06:39:04.501Z,12.05
2023-03-19T06:41:32.793Z,11.45
2023-03-19T06:44:02.380Z,9.57
2023-03-19T06:46:31.357Z,9.70
2023-03-19T06:48:59.624Z,9.10
2023-03-19T06:51:28.682Z,9.15
2023-03-19T06:53:56.861Z,9.32
2023-03-19T06:56:25.072Z,8.63
2023-03-19T06:58:53.269Z,18.05
2023-03-19T07:01:25.998Z,11.95
2023-03-19T07:03:54.392Z,10.50
2023-03-19T07:06:22.673Z,9.63
2023-03-19T07:08:50.877Z,9.45
2023-03-19T07:11:19.221Z,12.48
2023-03-19T07:13:47.488Z,12.05
2023-03-19T07:16:15.816Z,11.17
2023-03-19T07:18:51.634Z,9.93
2023-03-19T07:21:19.870Z,9.60
2023-03-19T07:23:51.541Z,11.03
2023-03-19T07:26:20.114Z,9.83
2023-03-19T07:28:48.539Z,9.70
2023-03-19T07:31:18.040Z,9.97
2023-03-19T07:33:47.706Z,9.67
2023-03-19T07:36:16.441Z,10.60
2023-03-19T07:38:44.682Z,9.30
2023-03-19T07:41:12.937Z,9.98
2023-03-19T07:43:41.148Z,9.80
2023-03-19T07:46:09.736Z,10.07
2023-03-19T07:48:38.379Z,18.95
2023-03-19T07:51:08.436Z,11.70
2023-03-19T07:53:36.648Z,10.10
2023-03-19T07:56:05.063Z,11.90
2023-03-19T07:58:33.269Z,10.35
2023-03-19T08:01:01.442Z,9.50
2023-03-19T08:03:29.714Z,10.15
2023-03-19T08:05:58.016Z,10.65
2023-03-19T08:08:27.648Z,10.10
2023-03-19T08:10:56.001Z,9.50
2023-03-19T08:13:24.485Z,10.25
2023-03-19T08:15:53.561Z,10.25
2023-03-19T08:18:21.812Z,10.63
2023-03-19T08:20:50.320Z,10.90
2023-03-19T08:23:18.606Z,10.82
2023-03-19T08:25:48.239Z,8.70
2023-03-19T08:28:16.506Z,9.63
2023-03-19T08:30:44.828Z,10.27
2023-03-19T08:33:13.436Z,9.85
2023-03-19T08:35:41.798Z,10.40
2023-03-19T08:38:10.356Z,11.55
2023-03-19T08:40:41.780Z,10.88
2023-03-19T08:43:11.461Z,11.23
2023-03-19T08:45:39.733Z,11.00
2023-03-19T08:48:08.062Z,13.27
2023-03-19T08:50:36.618Z,13.05
2023-03-19T08:53:05.025Z,9.95
2023-03-19T08:55:33.237Z,10.95
2023-03-19T08:58:01.523Z,10.90
2023-03-19T09:00:31.586Z,11.10
2023-03-19T09:02:59.949Z,10.98
2023-03-19T09:05:29.773Z,10.82
2023-03-19T09:07:58.072Z,9.80
2023-03-19T09:10:26.691Z,12.02
2023-03-19T09:12:58.459Z,10.43
2023-03-19T09:15:26.925Z,10.60
2023-03-19T09:17:56.837Z,9.93
2023-03-19T09:20:25.117Z,11.18
2023-03-19T09:22:53.429Z,9.75
2023-03-19T09:25:24.766Z,10.40
2023-03-19T09:27:53.017Z,10.70
2023-03-19T09:30:21.878Z,10.00
2023-03-19T09:32:50.142Z,10.10
2023-03-19T09:35:19.856Z,12.20
2023-03-19T09:37:50.906Z,13.35
2023-03-19T09:40:25.469Z,17.95
2023-03-19T09:43:04.773Z,15.60
2023-03-19T09:45:33.651Z,32.25
2023-03-19T09:48:06.833Z,38.90
2023-03-19T09:50:37.700Z,36.78
2023-03-19T09:53:14.131Z,17.33
2023-03-19T09:55:46.761Z,21.58
2023-03-19T09:58:19.139Z,35.33
2023-03-19T10:00:51.278Z,16.40
2023-03-19T10:03:43.430Z,31.55
2023-03-19T10:06:27.688Z,12.45
2023-03-19T10:09:18.511Z,12.45
2023-03-19T10:11:58.393Z,17.00
2023-03-19T10:14:44.999Z,20.23
2023-03-19T10:17:18.143Z,24.63
2023-03-19T10:19:50.760Z,13.40
2023-03-19T10:22:25.899Z,16.03
2023-03-19T10:24:58.341Z,14.40
2023-03-19T10:27:29.755Z,30.70
2023-03-19T10:29:58.328Z,25.20
2023-03-19T10:32:35.839Z,16.90
2023-03-19T10:35:10.982Z,37.20
2023-03-19T10:37:40.628Z,14.47
2023-03-19T10:40:21.027Z,17.07
2023-03-19T10:43:02.545Z,13.00
2023-03-19T10:45:33.383Z,18.23
2023-03-19T10:48:03.926Z,13.23
2023-03-19T10:50:36.335Z,12.33
2023-03-19T10:53:08.994Z,11.40
2023-03-19T10:55:37.570Z,11.77
2023-03-19T10:58:08.325Z,10.33
2023-03-19T11:00:36.571Z,12.30
2023-03-19T11:03:30.359Z,10.67
2023-03-19T11:06:06.960Z,12.00
2023-03-19T11:08:40.036Z,9.40
2023-03-19T11:11:08.401Z,11.10
2023-03-19T11:13:37.129Z,10.00
2023-03-19T11:16:05.972Z,10.60
2023-03-19T11:18:40.274Z,10.03
2023-03-19T11:21:25.337Z,11.50
2023-03-19T11:24:02.830Z,13.33
2023-03-19T11:26:32.112Z,10.57
2023-03-19T11:29:06.027Z,11.10
2023-03-19T11:31:42.977Z,9.87
2023-03-19T11:34:25.601Z,9.43
2023-03-19T11:37:05.916Z,10.00
2023-03-19T11:39:45.781Z,10.30
2023-03-19T11:42:36.989Z,8.87
2023-03-19T11:45:18.483Z,9.00
2023-03-19T11:47:56.356Z,11.00
2023-03-19T11:50:30.317Z,10.50
2023-03-19T11:53:09.355Z,9.03
2023-03-19T11:55:44.270Z,10.27
2023-03-19T11:58:48.011Z,9.50
2023-03-19T12:01:26.934Z,10.50
2023-03-19T12:04:20.479Z,9.33
2023-03-19T12:07:05.787Z,9.63
2023-03-19T12:09:42.354Z,10.40
2023-03-19T12:12:19.337Z,8.97
2023-03-19T12:15:05.940Z,9.23
2023-03-19T12:17:50.840Z,10.03
2023-03-19T12:20:30.827Z,10.43
2023-03-19T12:23:16.993Z,10.27
2023-03-19T12:26:04.998Z,10.47
2023-03-19T12:28:36.968Z,9.90
2023-03-19T12:31:23.859Z,11.73
2023-03-19T12:34:03.969Z,10.27
2023-03-19T12:36:39.971Z,10.53
2023-03-19T12:39:13.445Z,9.90
2023-03-19T12:41:44.218Z,9.90
2023-03-19T12:44:18.777Z,13.23
2023-03-19T12:46:54.048Z,12.27
2023-03-19T12:49:30.908Z,14.80
2023-03-19T12:52:12.192Z,10.57
2023-03-19T12:54:46.344Z,13.30
2023-03-19T12:57:20.800Z,14.50
2023-03-19T13:00:00.587Z,11.00
2023-03-19T13:02:35.129Z,10.60
2023-03-19T13:05:10.843Z,11.20
2023-03-19T13:07:48.345Z,10.98
2023-03-19T13:10:23.748Z,11.13
2023-03-19T13:12:54.616Z,11.25
2023-03-19T13:15:29.936Z,11.30
2023-03-19T13:18:09.889Z,12.27
2023-03-19T13:20:53.685Z,11.90
2023-03-19T13:23:26.659Z,11.73
2023-03-19T13:25:59.261Z,11.10
2023-03-19T13:28:30.429Z,11.65
2023-03-19T13:31:06.081Z,12.50
2023-03-19T13:33:37.610Z,11.93
2023-03-19T13:36:09.036Z,11.73
2023-03-19T13:38:42.265Z,11.75
2023-03-19T13:41:43.555Z,11.85
2023-03-19T13:44:43.400Z,11.98
2023-03-19T13:47:43.398Z,11.27
2023-03-19T13:50:34.143Z,11.73
2023-03-19T13:53:40.196Z,10.53
2023-03-19T13:56:22.536Z,10.77
2023-03-19T13:59:27.046Z,9.97
2023-03-19T14:01:56.092Z,10.00
2023-03-19T14:04:30.832Z,9.90
2023-03-19T14:07:11.078Z,10.00
2023-03-19T14:09:42.242Z,9.60
2023-03-19T14:12:22.990Z,9.90
2023-03-19T14:14:54.228Z,10.23
2023-03-19T14:17:26.493Z,9.30
2023-03-19T14:19:56.456Z,10.10
2023-03-19T14:22:36.478Z,9.00
2023-03-19T14:25:17.711Z,10.77
2023-03-19T14:27:51.167Z,9.80
2023-03-19T14:30:28.552Z,9.80
2023-03-19T14:33:04.051Z,10.48
2023-03-19T14:35:38.043Z,10.10
2023-03-19T14:38:15.249Z,10.17
2023-03-19T14:40:46.635Z,9.67
2023-03-19T14:43:28.457Z,10.57
2023-03-19T14:46:01.555Z,11.05
2023-03-19T14:49:06.431Z,11.02
2023-03-19T14:52:01.715Z,11.10
2023-03-19T14:54:37.156Z,9.90
2023-03-19T14:57:09.273Z,11.83
2023-03-19T14:59:41.231Z,11.40
2023-03-19T15:02:28.917Z,11.70
2023-03-19T15:05:00.470Z,11.23
2023-03-19T15:07:36.827Z,12.07
2023-03-19T15:10:06.838Z,12.88
2023-03-19T15:12:55.816Z,11.73
2023-03-19T15:15:38.273Z,11.40
2023-03-19T15:18:10.913Z,11.30
2023-03-19T15:20:43.575Z,10.32
2023-03-19T15:23:26.855Z,11.25
2023-03-19T15:26:01.836Z,11.73
2023-03-19T15:28:31.093Z,12.20
2023-03-19T15:31:20.209Z,11.95
2023-03-19T15:33:53.078Z,11.95
2023-03-19T15:36:27.213Z,11.45
2023-03-19T15:38:58.993Z,11.70
2023-03-19T15:41:33.438Z,11.52
2023-03-19T15:44:02.408Z,10.93
2023-03-19T15:46:35.141Z,12.55
2023-03-19T15:49:09.801Z,11.60
2023-03-19T15:51:38.571Z,13.13
2023-03-19T15:54:11.209Z,11.82
2023-03-19T15:56:43.117Z,12.20
2023-03-19T15:59:14.493Z,11.85
2023-03-19T16:01:42.937Z,12.50
2023-03-19T16:04:20.851Z,12.18
2023-03-19T16:06:50.873Z,11.82
2023-03-19T16:09:25.551Z,12.10
2023-03-19T16:11:54.772Z,12.38
2023-03-19T16:14:26.102Z,12.73
2023-03-19T16:17:04.454Z,12.07
2023-03-19T16:19:36.122Z,13.68
2023-03-19T16:22:11.578Z,13.07
2023-03-19T16:24:43.543Z,13.75
2023-03-19T16:27:15.787Z,12.80
2023-03-19T16:29:49.009Z,13.55
2023-03-19T16:32:21.489Z,14.05
2023-03-19T16:34:52.582Z,15.13
2023-03-19T16:37:42.512Z,14.07
2023-03-19T16:40:43.077Z,15.40
2023-03-19T16:43:23.956Z,14.77
2023-03-19T16:45:53.276Z,15.17
2023-03-19T16:48:27.257Z,14.75
2023-03-19T16:50:56.142Z,14.48
2023-03-19T16:53:26.738Z,16.67
2023-03-19T16:56:00.852Z,15.70
2023-03-19T16:58:32.780Z,16.05
2023-03-19T17:01:02.468Z,14.60
2023-03-19T17:03:33.552Z,16.52
2023-03-19T17:06:04.987Z,14.98
2023-03-19T17:08:33.460Z,16.67
2023-03-19T17:11:03.142Z,14.60
2023-03-19T17:13:33.563Z,14.90
2023-03-19T17:16:05.441Z,19.05
2023-03-19T17:18:36.592Z,17.45
2023-03-19T17:21:12.982Z,17.95
2023-03-19T17:23:41.382Z,17.23
2023-03-19T17:26:20.397Z,17.60
2023-03-19T17:28:49.441Z,20.60
2023-03-19T17:31:24.620Z,19.65
2023-03-19T17:33:53.436Z,20.45
2023-03-19T17:36:21.774Z,20.55
2023-03-19T17:38:49.956Z,22.38
2023-03-19T17:41:27.186Z,23.05
2023-03-19T17:43:55.437Z,21.27
2023-03-19T17:46:25.973Z,23.17
2023-03-19T17:48:57.585Z,21.92
2023-03-19T17:51:27.404Z,20.50
2023-03-19T17:53:59.182Z,19.05
2023-03-19T17:56:28.826Z,18.17
2023-03-19T17:58:57.161Z,19.92
2023-03-19T18:01:28.348Z,20.02
2023-03-19T18:04:01.476Z,19.20
2023-03-19T18:06:34.796Z,19.63
2023-03-19T18:09:06.077Z,21.50
2023-03-19T18:11:36.238Z,19.15
2023-03-19T18:14:04.473Z,21.80
2023-03-19T18:16:33.775Z,21.80
2023-03-19T18:19:04.379Z,21.05
2023-03-19T18:21:32.653Z,20.55
2023-03-19T18:24:02.233Z,22.17
2023-03-19T18:26:30.458Z,21.45
2023-03-19T18:29:03.105Z,22.58
2023-03-19T18:31:31.639Z,22.98
2023-03-19T18:34:05.603Z,22.30
2023-03-19T18:36:36.653Z,21.23
2023-03-19T18:39:12.108Z,22.90
2023-03-19T18:41:40.365Z,22.13
2023-03-19T18:44:11.027Z,22.85
2023-03-19T18:46:43.683Z,22.60
2023-03-19T18:49:24.945Z,23.25
2023-03-19T18:52:02.577Z,29.17
2023-03-19T18:54:31.968Z,31.60
2023-03-19T18:57:02.291Z,32.72
2023-03-19T18:59:35.553Z,30.35
2023-03-19T19:02:29.812Z,29.92
2023-03-19T19:04:58.321Z,28.15
2023-03-19T19:07:29.490Z,26.75
2023-03-19T19:10:00.509Z,23.90
2023-03-19T19:12:38.054Z,24.00
2023-03-19T19:15:16.967Z,24.40
2023-03-19T19:17:48.264Z,24.20
2023-03-19T19:20:18.443Z,24.38
2023-03-19T19:22:46.948Z,24.17
2023-03-19T19:25:19.623Z,24.05
2023-03-19T19:27:55.812Z,25.20
2023-03-19T19:30:26.183Z,25.63
2023-03-19T19:32:54.477Z,26.55
2023-03-19T19:35:25.487Z,25.17
2023-03-19T19:37:54.320Z,27.60
2023-03-19T19:40:26.469Z,26.75
2023-03-19T19:42:55.158Z,26.48
2023-03-19T19:45:30.660Z,25.85
2023-03-19T19:48:05.428Z,24.60
2023-03-19T19:50:33.959Z,26.65
2023-03-19T19:53:02.290Z,26.55
2023-03-19T19:55:36.739Z,26.02
2023-03-19T19:58:08.459Z,26.27
2023-03-19T20:00:38.463Z,26.33
2023-03-19T20:03:21.245Z,25.88
2023-03-19T20:05:53.148Z,26.65
2023-03-19T20:08:22.042Z,26.58
2023-03-19T20:10:51.043Z,25.15
2023-03-19T20:13:24.963Z,27.45
2023-03-19T20:15:56.120Z,26.95
2023-03-19T20:18:30.465Z,28.23
2023-03-19T20:21:00.198Z,25.67
2023-03-19T20:23:28.470Z,25.58
2023-03-19T20:25:58.280Z,26.40
2023-03-19T20:28:32.482Z,24.73
2023-03-19T20:31:03.686Z,23.73
2023-03-19T20:33:34.451Z,23.70
2023-03-19T20:36:03.338Z,24.52
2023-03-19T20:38:31.605Z,24.83
2023-03-19T20:41:00.110Z,25.13
2023-03-19T20:43:31.206Z,25.92
2023-03-19T20:46:03.029Z,27.77
2023-03-19T20:48:35.229Z,25.80
2023-03-19T20:51:04.147Z,27.85
2023-03-19T20:53:32.489Z,25.83
2023-03-19T20:56:03.427Z,28.73
2023-03-19T20:58:33.707Z,27.30
2023-03-19T21:01:04.392Z,27.98
2023-03-19T21:03:35.927Z,26.02
2023-03-19T21:06:06.885Z,25.48
2023-03-19T21:08:37.554Z,28.75
2023-03-19T21:11:08.861Z,26.98
2023-03-19T21:13:37.335Z,30.48
2023-03-19T21:16:07.899Z,27.73
2023-03-19T21:18:36.280Z,24.80
2023-03-19T21:21:07.156Z,24.50
2023-03-19T21:23:40.703Z,22.98
2023-03-19T21:26:16.434Z,25.45
2023-03-19T21:28:46.785Z,24.98
2023-03-19T21:31:18.894Z,23.80
2023-03-19T21:33:48.382Z,22.85
2023-03-19T21:36:16.943Z,24.70
2023-03-19T21:38:45.737Z,23.77
2023-03-19T21:41:21.893Z,24.00
2023-03-19T21:43:54.118Z,23.15
2023-03-19T21:46:28.798Z,22.30
2023-03-19T21:48:58.542Z,22.52
2023-03-19T21:51:28.684Z,23.55
2023-03-19T21:53:57.231Z,22.98
2023-03-19T21:56:32.663Z,23.30
2023-03-19T21:59:02.712Z,23.17
2023-03-19T22:01:32.375Z,22.48
2023-03-19T22:04:00.921Z,22.48
2023-03-19T22:06:30.083Z,23.92
2023-03-19T22:08:59.332Z,24.55
2023-03-19T22:11:29.325Z,22.70
2023-03-19T22:14:04.519Z,23.70
2023-03-19T22:16:34.635Z,23.70
2023-03-19T22:19:03.157Z,24.35
2023-03-19T22:21:32.924Z,23.88
2023-03-19T22:24:02.255Z,23.15
2023-03-19T22:26:32.216Z,24.77
2023-03-19T22:29:02.979Z,22.40
2023-03-19T22:31:31.859Z,24.08
2023-03-19T22:34:02.251Z,25.45
2023-03-19T22:36:30.531Z,25.10
2023-03-19T22:38:58.843Z,26.45
2023-03-19T22:41:29.644Z,26.88
2023-03-19T22:43:59.934Z,26.42
2023-03-19T22:46:28.793Z,24.30
2023-03-19T22:48:57.144Z,24.70
2023-03-19T22:51:28.622Z,27.00
2023-03-19T22:53:56.951Z,27.42
2023-03-19T22:56:25.215Z,26.75
2023-03-19T22:58:54.010Z,28.10
2023-03-19T23:01:32.743Z,26.42
2023-03-19T23:04:18.519Z,28.92
2023-03-19T23:06:48.602Z,29.95
2023-03-19T23:09:18.291Z,30.20
2023-03-19T23:11:48.307Z,28.02
2023-03-19T23:14:28.568Z,30.73
2023-03-19T23:17:00.873Z,29.45
2023-03-19T23:19:31.450Z,29.73
2023-03-19T23:22:02.631Z,31.90
2023-03-19T23:24:31.638Z,30.52
2023-03-19T23:27:00.970Z,31.70
2023-03-19T23:29:34.278Z,33.70
2023-03-19T23:32:03.468Z,35.10
2023-03-19T23:34:35.284Z,31.25
2023-03-19T23:37:09.696Z,31.13
2023-03-19T23:39:39.645Z,32.33
2023-03-19T23:42:08.673Z,32.13
2023-03-19T23:44:38.931Z,35.80
2023-03-19T23:47:10.892Z,32.63
2023-03-19T23:49:39.634Z,35.25
2023-03-19T23:52:14.440Z,33.90
2023-03-19T23:54:42.724Z,33.40
2023-03-19T23:57:15.586Z,34.60
2023-03-19T23:59:46.691Z,33.10
